sensor_id;sensor_type;location;lat;lon;timestamp;P1;durP1;ratioP1;P2;durP2;ratioP2
70838;SDS011;58464;52.298;4.852;2023-01-01T00:01:22;30.52;;;12.35;;
70838;SDS011;58464;52.298;4.852;2023-01-01T00:03:48;78.18;;;38.20;;
70838;SDS011;58464;52.298;4.852;2023-01-01T00:06:14;31.45;;;15.40;;
70838;SDS011;58464;52.298;4.852;2023-01-01T00:08:39;33.20;;;14.80;;
70838;SDS011;58464;52.298;4.852;2023-01-01T00:11:06;30.65;;;14.15;;
70838;SDS011;58464;52.298;4.852;2023-01-01T00:13:32;38.30;;;15.23;;
70838;SDS011;58464;52.298;4.852;2023-01-01T00:16:04;32.08;;;15.68;;
70838;SDS011;58464;52.298;4.852;2023-01-01T00:18:30;39.90;;;17.45;;
70838;SDS011;58464;52.298;4.852;2023-01-01T00:21:08;28.57;;;13.40;;
70838;SDS011;58464;52.298;4.852;2023-01-01T00:23:34;43.72;;;16.77;;
70838;SDS011;58464;52.298;4.852;2023-01-01T00:25:59;35.95;;;15.48;;
70838;SDS011;58464;52.298;4.852;2023-01-01T00:28:24;37.08;;;15.88;;
70838;SDS011;58464;52.298;4.852;2023-01-01T00:30:50;36.25;;;15.85;;
70838;SDS011;58464;52.298;4.852;2023-01-01T00:33:15;44.33;;;19.10;;
70838;SDS011;58464;52.298;4.852;2023-01-01T00:35:40;28.40;;;13.60;;
70838;SDS011;58464;52.298;4.852;2023-01-01T00:38:06;38.73;;;13.87;;
70838;SDS011;58464;52.298;4.852;2023-01-01T00:40:31;43.33;;;16.07;;
70838;SDS011;58464;52.298;4.852;2023-01-01T00:42:56;32.10;;;15.52;;
70838;SDS011;58464;52.298;4.852;2023-01-01T00:45:22;30.80;;;13.27;;
70838;SDS011;58464;52.298;4.852;2023-01-01T00:47:47;38.92;;;13.70;;
70838;SDS011;58464;52.298;4.852;2023-01-01T00:50:12;33.65;;;13.20;;
70838;SDS011;58464;52.298;4.852;2023-01-01T00:52:38;28.50;;;12.00;;
70838;SDS011;58464;52.298;4.852;2023-01-01T00:55:03;29.57;;;12.03;;
70838;SDS011;58464;52.298;4.852;2023-01-01T00:57:28;26.45;;;10.45;;
70838;SDS011;58464;52.298;4.852;2023-01-01T00:59:53;33.40;;;11.50;;
70838;SDS011;58464;52.298;4.852;2023-01-01T01:02:19;18.70;;;9.52;;
70838;SDS011;58464;52.298;4.852;2023-01-01T01:04:44;22.33;;;9.98;;
70838;SDS011;58464;52.298;4.852;2023-01-01T01:07:10;18.73;;;9.30;;
70838;SDS011;58464;52.298;4.852;2023-01-01T01:09:35;42.33;;;14.53;;
70838;SDS011;58464;52.298;4.852;2023-01-01T01:12:00;20.50;;;8.10;;
70838;SDS011;58464;52.298;4.852;2023-01-01T01:14:25;25.03;;;8.07;;
70838;SDS011;58464;52.298;4.852;2023-01-01T01:16:51;25.13;;;8.37;;
70838;SDS011;58464;52.298;4.852;2023-01-01T01:19:16;27.42;;;8.52;;
70838;SDS011;58464;52.298;4.852;2023-01-01T01:21:43;21.85;;;9.00;;
70838;SDS011;58464;52.298;4.852;2023-01-01T01:24:09;21.52;;;8.40;;
70838;SDS011;58464;52.298;4.852;2023-01-01T01:26:34;27.08;;;8.90;;
70838;SDS011;58464;52.298;4.852;2023-01-01T01:29:01;24.20;;;6.85;;
70838;SDS011;58464;52.298;4.852;2023-01-01T01:31:27;18.52;;;6.45;;
70838;SDS011;58464;52.298;4.852;2023-01-01T01:33:53;23.13;;;6.95;;
70838;SDS011;58464;52.298;4.852;2023-01-01T01:36:19;14.10;;;4.68;;
70838;SDS011;58464;52.298;4.852;2023-01-01T01:38:44;21.10;;;5.22;;
70838;SDS011;58464;52.298;4.852;2023-01-01T01:41:11;11.30;;;4.43;;
70838;SDS011;58464;52.298;4.852;2023-01-01T01:46:06;11.63;;;5.07;;
70838;SDS011;58464;52.298;4.852;2023-01-01T01:48:36;21.15;;;4.43;;
70838;SDS011;58464;52.298;4.852;2023-01-01T01:51:02;23.48;;;5.55;;
70838;SDS011;58464;52.298;4.852;2023-01-01T01:53:28;15.85;;;4.38;;
70838;SDS011;58464;52.298;4.852;2023-01-01T01:55:55;29.60;;;4.85;;
70838;SDS011;58464;52.298;4.852;2023-01-01T01:58:22;15.00;;;4.50;;
70838;SDS011;58464;52.298;4.852;2023-01-01T02:00:48;46.03;;;17.13;;
70838;SDS011;58464;52.298;4.852;2023-01-01T02:03:16;15.90;;;4.38;;
70838;SDS011;58464;52.298;4.852;2023-01-01T02:05:42;22.52;;;5.75;;
70838;SDS011;58464;52.298;4.852;2023-01-01T02:08:11;23.70;;;7.57;;
70838;SDS011;58464;52.298;4.852;2023-01-01T02:10:38;20.23;;;5.70;;
70838;SDS011;58464;52.298;4.852;2023-01-01T02:13:04;12.38;;;3.90;;
70838;SDS011;58464;52.298;4.852;2023-01-01T02:15:30;14.45;;;3.60;;
70838;SDS011;58464;52.298;4.852;2023-01-01T02:23:04;14.82;;;3.47;;
70838;SDS011;58464;52.298;4.852;2023-01-01T02:29:00;13.77;;;3.43;;
70838;SDS011;58464;52.298;4.852;2023-01-01T02:30:53;12.73;;;3.08;;
70838;SDS011;58464;52.298;4.852;2023-01-01T02:33:21;15.00;;;3.45;;
70838;SDS011;58464;52.298;4.852;2023-01-01T02:35:51;12.15;;;3.22;;
70838;SDS011;58464;52.298;4.852;2023-01-01T02:38:31;13.55;;;3.28;;
70838;SDS011;58464;52.298;4.852;2023-01-01T02:40:58;13.93;;;3.90;;
70838;SDS011;58464;52.298;4.852;2023-01-01T02:43:24;10.15;;;3.60;;
70838;SDS011;58464;52.298;4.852;2023-01-01T02:45:50;12.30;;;3.22;;
70838;SDS011;58464;52.298;4.852;2023-01-01T02:50:59;18.23;;;4.63;;
70838;SDS011;58464;52.298;4.852;2023-01-01T02:53:29;11.45;;;3.10;;
70838;SDS011;58464;52.298;4.852;2023-01-01T02:58:30;24.15;;;4.00;;
70838;SDS011;58464;52.298;4.852;2023-01-01T03:01:28;12.10;;;2.90;;
70838;SDS011;58464;52.298;4.852;2023-01-01T03:04:39;10.15;;;2.90;;
70838;SDS011;58464;52.298;4.852;2023-01-01T03:06:50;11.43;;;2.70;;
70838;SDS011;58464;52.298;4.852;2023-01-01T03:09:36;11.93;;;3.00;;
70838;SDS011;58464;52.298;4.852;2023-01-01T03:12:49;17.38;;;4.15;;
70838;SDS011;58464;52.298;4.852;2023-01-01T03:15:06;8.32;;;2.40;;
70838;SDS011;58464;52.298;4.852;2023-01-01T03:17:35;10.75;;;3.55;;
70838;SDS011;58464;52.298;4.852;2023-01-01T03:20:03;12.63;;;2.65;;
70838;SDS011;58464;52.298;4.852;2023-01-01T03:22:31;13.77;;;3.90;;
70838;SDS011;58464;52.298;4.852;2023-01-01T03:24:58;12.52;;;3.72;;
70838;SDS011;58464;52.298;4.852;2023-01-01T03:27:29;16.38;;;3.13;;
70838;SDS011;58464;52.298;4.852;2023-01-01T03:29:56;17.77;;;3.55;;
70838;SDS011;58464;52.298;4.852;2023-01-01T03:32:40;8.98;;;2.75;;
70838;SDS011;58464;52.298;4.852;2023-01-01T03:35:24;12.70;;;2.72;;
70838;SDS011;58464;52.298;4.852;2023-01-01T03:37:50;12.80;;;2.88;;
70838;SDS011;58464;52.298;4.852;2023-01-01T03:40:18;13.02;;;3.28;;
70838;SDS011;58464;52.298;4.852;2023-01-01T03:42:44;10.43;;;3.55;;
70838;SDS011;58464;52.298;4.852;2023-01-01T03:45:14;11.02;;;2.25;;
70838;SDS011;58464;52.298;4.852;2023-01-01T03:47:40;13.40;;;2.88;;
70838;SDS011;58464;52.298;4.852;2023-01-01T03:50:06;10.63;;;2.65;;
70838;SDS011;58464;52.298;4.852;2023-01-01T03:55:07;12.10;;;3.30;;
70838;SDS011;58464;52.298;4.852;2023-01-01T04:00:30;12.17;;;2.07;;
70838;SDS011;58464;52.298;4.852;2023-01-01T04:02:58;8.05;;;1.80;;
70838;SDS011;58464;52.298;4.852;2023-01-01T04:05:24;7.80;;;1.75;;
70838;SDS011;58464;52.298;4.852;2023-01-01T04:07:50;6.22;;;1.90;;
70838;SDS011;58464;52.298;4.852;2023-01-01T04:10:16;8.18;;;1.95;;
70838;SDS011;58464;52.298;4.852;2023-01-01T04:12:45;7.13;;;2.20;;
70838;SDS011;58464;52.298;4.852;2023-01-01T04:15:12;7.88;;;2.08;;
70838;SDS011;58464;52.298;4.852;2023-01-01T04:17:37;7.75;;;1.60;;
70838;SDS011;58464;52.298;4.852;2023-01-01T04:20:02;9.23;;;2.17;;
70838;SDS011;58464;52.298;4.852;2023-01-01T04:22:28;8.98;;;1.58;;
70838;SDS011;58464;52.298;4.852;2023-01-01T04:24:53;6.05;;;2.00;;
70838;SDS011;58464;52.298;4.852;2023-01-01T04:27:18;14.00;;;2.70;;
70838;SDS011;58464;52.298;4.852;2023-01-01T04:29:43;12.30;;;1.67;;
70838;SDS011;58464;52.298;4.852;2023-01-01T04:32:09;6.63;;;1.73;;
70838;SDS011;58464;52.298;4.852;2023-01-01T04:34:34;6.57;;;1.90;;
70838;SDS011;58464;52.298;4.852;2023-01-01T04:36:59;7.67;;;1.23;;
70838;SDS011;58464;52.298;4.852;2023-01-01T04:39:24;16.33;;;2.30;;
70838;SDS011;58464;52.298;4.852;2023-01-01T04:41:49;12.77;;;2.23;;
70838;SDS011;58464;52.298;4.852;2023-01-01T04:44:15;8.90;;;1.80;;
70838;SDS011;58464;52.298;4.852;2023-01-01T04:46:40;7.73;;;2.10;;
70838;SDS011;58464;52.298;4.852;2023-01-01T04:49:06;7.57;;;1.45;;
70838;SDS011;58464;52.298;4.852;2023-01-01T04:51:31;8.33;;;2.00;;
70838;SDS011;58464;52.298;4.852;2023-01-01T04:53:57;12.33;;;2.33;;
70838;SDS011;58464;52.298;4.852;2023-01-01T04:56:23;5.22;;;1.67;;
70838;SDS011;58464;52.298;4.852;2023-01-01T04:58:48;7.32;;;1.77;;
70838;SDS011;58464;52.298;4.852;2023-01-01T05:01:18;10.38;;;2.30;;
70838;SDS011;58464;52.298;4.852;2023-01-01T05:03:44;9.55;;;1.80;;
70838;SDS011;58464;52.298;4.852;2023-01-01T05:06:10;7.90;;;1.73;;
70838;SDS011;58464;52.298;4.852;2023-01-01T05:08:36;12.60;;;2.33;;
70838;SDS011;58464;52.298;4.852;2023-01-01T05:11:06;13.27;;;2.72;;
70838;SDS011;58464;52.298;4.852;2023-01-01T05:13:39;15.57;;;3.13;;
70838;SDS011;58464;52.298;4.852;2023-01-01T05:16:05;7.50;;;1.98;;
70838;SDS011;58464;52.298;4.852;2023-01-01T05:18:31;14.75;;;2.47;;
70838;SDS011;58464;52.298;4.852;2023-01-01T05:21:03;10.18;;;1.90;;
70838;SDS011;58464;52.298;4.852;2023-01-01T05:23:28;15.25;;;2.22;;
70838;SDS011;58464;52.298;4.852;2023-01-01T05:25:54;9.23;;;2.38;;
70838;SDS011;58464;52.298;4.852;2023-01-01T05:28:19;22.23;;;3.70;;
70838;SDS011;58464;52.298;4.852;2023-01-01T05:30:45;25.97;;;2.80;;
70838;SDS011;58464;52.298;4.852;2023-01-01T05:33:11;16.98;;;2.65;;
70838;SDS011;58464;52.298;4.852;2023-01-01T05:35:37;17.92;;;2.47;;
70838;SDS011;58464;52.298;4.852;2023-01-01T05:38:02;21.57;;;4.03;;
70838;SDS011;58464;52.298;4.852;2023-01-01T05:40:28;25.27;;;3.10;;
70838;SDS011;58464;52.298;4.852;2023-01-01T05:42:54;22.80;;;3.45;;
70838;SDS011;58464;52.298;4.852;2023-01-01T05:45:19;22.43;;;3.70;;
70838;SDS011;58464;52.298;4.852;2023-01-01T05:47:44;16.77;;;2.80;;
70838;SDS011;58464;52.298;4.852;2023-01-01T05:50:09;16.50;;;2.50;;
70838;SDS011;58464;52.298;4.852;2023-01-01T05:52:35;19.27;;;2.83;;
70838;SDS011;58464;52.298;4.852;2023-01-01T05:55:00;18.23;;;3.20;;
70838;SDS011;58464;52.298;4.852;2023-01-01T05:57:27;23.50;;;2.70;;
70838;SDS011;58464;52.298;4.852;2023-01-01T05:59:52;25.10;;;2.47;;
70838;SDS011;58464;52.298;4.852;2023-01-01T06:02:17;17.80;;;2.97;;
70838;SDS011;58464;52.298;4.852;2023-01-01T06:04:42;11.27;;;2.57;;
70838;SDS011;58464;52.298;4.852;2023-01-01T06:07:08;17.58;;;3.10;;
70838;SDS011;58464;52.298;4.852;2023-01-01T06:09:33;19.47;;;3.50;;
70838;SDS011;58464;52.298;4.852;2023-01-01T06:11:58;22.20;;;3.10;;
70838;SDS011;58464;52.298;4.852;2023-01-01T06:14:23;20.40;;;3.35;;
70838;SDS011;58464;52.298;4.852;2023-01-01T06:16:49;18.90;;;3.10;;
70838;SDS011;58464;52.298;4.852;2023-01-01T06:19:14;15.10;;;2.93;;
70838;SDS011;58464;52.298;4.852;2023-01-01T06:21:39;14.37;;;2.53;;
70838;SDS011;58464;52.298;4.852;2023-01-01T06:24:04;25.93;;;3.50;;
70838;SDS011;58464;52.298;4.852;2023-01-01T06:26:30;16.58;;;3.25;;
70838;SDS011;58464;52.298;4.852;2023-01-01T06:28:56;22.50;;;3.05;;
70838;SDS011;58464;52.298;4.852;2023-01-01T06:31:22;10.88;;;2.72;;
70838;SDS011;58464;52.298;4.852;2023-01-01T06:33:47;15.77;;;2.93;;
70838;SDS011;58464;52.298;4.852;2023-01-01T06:36:13;15.65;;;2.83;;
70838;SDS011;58464;52.298;4.852;2023-01-01T06:38:40;20.13;;;3.38;;
70838;SDS011;58464;52.298;4.852;2023-01-01T06:41:06;17.80;;;3.63;;
70838;SDS011;58464;52.298;4.852;2023-01-01T06:43:32;22.70;;;3.83;;
70838;SDS011;58464;52.298;4.852;2023-01-01T06:45:58;19.75;;;3.47;;
70838;SDS011;58464;52.298;4.852;2023-01-01T06:48:24;20.13;;;4.32;;
70838;SDS011;58464;52.298;4.852;2023-01-01T06:50:49;29.27;;;3.80;;
70838;SDS011;58464;52.298;4.852;2023-01-01T06:53:14;24.63;;;3.10;;
70838;SDS011;58464;52.298;4.852;2023-01-01T06:55:40;29.13;;;3.20;;
70838;SDS011;58464;52.298;4.852;2023-01-01T06:58:13;22.40;;;3.28;;
70838;SDS011;58464;52.298;4.852;2023-01-01T07:00:38;22.27;;;3.75;;
70838;SDS011;58464;52.298;4.852;2023-01-01T07:03:03;22.00;;;2.60;;
70838;SDS011;58464;52.298;4.852;2023-01-01T07:05:28;14.07;;;2.73;;
70838;SDS011;58464;52.298;4.852;2023-01-01T07:07:53;31.63;;;3.60;;
70838;SDS011;58464;52.298;4.852;2023-01-01T07:10:19;14.23;;;3.13;;
70838;SDS011;58464;52.298;4.852;2023-01-01T07:12:44;16.33;;;3.30;;
70838;SDS011;58464;52.298;4.852;2023-01-01T07:15:09;26.93;;;3.70;;
70838;SDS011;58464;52.298;4.852;2023-01-01T07:17:35;29.60;;;4.38;;
70838;SDS011;58464;52.298;4.852;2023-01-01T07:20:00;36.30;;;4.83;;
70838;SDS011;58464;52.298;4.852;2023-01-01T07:22:25;23.67;;;3.30;;
70838;SDS011;58464;52.298;4.852;2023-01-01T07:24:50;20.77;;;3.60;;
70838;SDS011;58464;52.298;4.852;2023-01-01T07:27:15;21.60;;;3.37;;
70838;SDS011;58464;52.298;4.852;2023-01-01T07:29:41;23.13;;;3.23;;
70838;SDS011;58464;52.298;4.852;2023-01-01T07:32:10;24.10;;;3.13;;
70838;SDS011;58464;52.298;4.852;2023-01-01T07:34:36;21.10;;;3.45;;
70838;SDS011;58464;52.298;4.852;2023-01-01T07:37:01;23.07;;;3.50;;
70838;SDS011;58464;52.298;4.852;2023-01-01T07:39:26;20.03;;;3.23;;
70838;SDS011;58464;52.298;4.852;2023-01-01T07:41:52;21.03;;;3.77;;
70838;SDS011;58464;52.298;4.852;2023-01-01T07:44:17;18.25;;;2.53;;
70838;SDS011;58464;52.298;4.852;2023-01-01T07:46:42;24.90;;;4.13;;
70838;SDS011;58464;52.298;4.852;2023-01-01T07:49:10;31.30;;;3.80;;
70838;SDS011;58464;52.298;4.852;2023-01-01T07:51:35;15.00;;;2.55;;
70838;SDS011;58464;52.298;4.852;2023-01-01T07:54:01;12.50;;;2.07;;
70838;SDS011;58464;52.298;4.852;2023-01-01T07:56:26;18.40;;;3.33;;
70838;SDS011;58464;52.298;4.852;2023-01-01T07:58:51;18.45;;;2.85;;
70838;SDS011;58464;52.298;4.852;2023-01-01T08:01:16;29.88;;;3.95;;
70838;SDS011;58464;52.298;4.852;2023-01-01T08:03:43;18.27;;;4.10;;
70838;SDS011;58464;52.298;4.852;2023-01-01T08:06:08;13.00;;;2.43;;
70838;SDS011;58464;52.298;4.852;2023-01-01T08:08:34;18.00;;;2.72;;
70838;SDS011;58464;52.298;4.852;2023-01-01T08:11:00;20.48;;;2.92;;
70838;SDS011;58464;52.298;4.852;2023-01-01T08:13:25;21.67;;;3.65;;
70838;SDS011;58464;52.298;4.852;2023-01-01T08:15:50;18.00;;;2.67;;
70838;SDS011;58464;52.298;4.852;2023-01-01T08:18:15;22.43;;;2.67;;
70838;SDS011;58464;52.298;4.852;2023-01-01T08:20:40;19.77;;;3.23;;
70838;SDS011;58464;52.298;4.852;2023-01-01T08:23:06;12.17;;;2.10;;
70838;SDS011;58464;52.298;4.852;2023-01-01T08:25:31;17.30;;;2.60;;
70838;SDS011;58464;52.298;4.852;2023-01-01T08:27:56;12.33;;;3.00;;
70838;SDS011;58464;52.298;4.852;2023-01-01T08:30:21;14.25;;;2.92;;
70838;SDS011;58464;52.298;4.852;2023-01-01T08:32:47;16.33;;;2.97;;
70838;SDS011;58464;52.298;4.852;2023-01-01T08:35:12;20.80;;;4.30;;
70838;SDS011;58464;52.298;4.852;2023-01-01T08:37:37;21.00;;;3.17;;
70838;SDS011;58464;52.298;4.852;2023-01-01T08:40:03;36.83;;;3.93;;
70838;SDS011;58464;52.298;4.852;2023-01-01T08:42:28;17.23;;;2.80;;
70838;SDS011;58464;52.298;4.852;2023-01-01T08:44:53;18.57;;;3.17;;
70838;SDS011;58464;52.298;4.852;2023-01-01T08:47:22;20.33;;;3.13;;
70838;SDS011;58464;52.298;4.852;2023-01-01T08:49:48;17.20;;;3.00;;
70838;SDS011;58464;52.298;4.852;2023-01-01T08:52:14;19.40;;;2.97;;
70838;SDS011;58464;52.298;4.852;2023-01-01T08:54:39;22.20;;;2.42;;
70838;SDS011;58464;52.298;4.852;2023-01-01T08:57:04;11.32;;;2.47;;
70838;SDS011;58464;52.298;4.852;2023-01-01T08:59:30;16.65;;;2.22;;
70838;SDS011;58464;52.298;4.852;2023-01-01T09:01:55;17.87;;;2.53;;
70838;SDS011;58464;52.298;4.852;2023-01-01T09:04:20;20.50;;;3.73;;
70838;SDS011;58464;52.298;4.852;2023-01-01T09:06:45;17.00;;;2.53;;
70838;SDS011;58464;52.298;4.852;2023-01-01T09:09:11;18.07;;;2.93;;
70838;SDS011;58464;52.298;4.852;2023-01-01T09:11:36;13.35;;;2.38;;
70838;SDS011;58464;52.298;4.852;2023-01-01T09:14:01;20.50;;;3.27;;
70838;SDS011;58464;52.298;4.852;2023-01-01T09:16:26;16.40;;;2.85;;
70838;SDS011;58464;52.298;4.852;2023-01-01T09:18:52;21.43;;;3.50;;
70838;SDS011;58464;52.298;4.852;2023-01-01T09:21:17;22.43;;;3.43;;
70838;SDS011;58464;52.298;4.852;2023-01-01T09:23:43;26.05;;;3.45;;
70838;SDS011;58464;52.298;4.852;2023-01-01T09:26:09;15.75;;;2.78;;
70838;SDS011;58464;52.298;4.852;2023-01-01T09:28:35;17.73;;;2.45;;
70838;SDS011;58464;52.298;4.852;2023-01-01T09:31:00;22.52;;;2.97;;
70838;SDS011;58464;52.298;4.852;2023-01-01T09:33:26;16.50;;;3.03;;
70838;SDS011;58464;52.298;4.852;2023-01-01T09:35:51;18.05;;;2.92;;
70838;SDS011;58464;52.298;4.852;2023-01-01T09:38:16;19.43;;;3.07;;
70838;SDS011;58464;52.298;4.852;2023-01-01T09:43:11;19.33;;;2.77;;
70838;SDS011;58464;52.298;4.852;2023-01-01T09:45:55;15.77;;;3.00;;
70838;SDS011;58464;52.298;4.852;2023-01-01T09:48:21;20.35;;;2.65;;
70838;SDS011;58464;52.298;4.852;2023-01-01T09:50:47;23.98;;;2.95;;
70838;SDS011;58464;52.298;4.852;2023-01-01T09:58:06;19.17;;;3.60;;
70838;SDS011;58464;52.298;4.852;2023-01-01T10:00:32;23.23;;;3.22;;
70838;SDS011;58464;52.298;4.852;2023-01-01T10:05:45;24.03;;;3.20;;
70838;SDS011;58464;52.298;4.852;2023-01-01T10:08:36;19.45;;;3.08;;
70838;SDS011;58464;52.298;4.852;2023-01-01T10:13:50;24.75;;;4.05;;
70838;SDS011;58464;52.298;4.852;2023-01-01T10:16:21;16.42;;;2.75;;
70838;SDS011;58464;52.298;4.852;2023-01-01T10:18:49;15.93;;;2.53;;
70838;SDS011;58464;52.298;4.852;2023-01-01T10:21:17;16.08;;;2.90;;
70838;SDS011;58464;52.298;4.852;2023-01-01T10:23:45;14.18;;;2.55;;
70838;SDS011;58464;52.298;4.852;2023-01-01T10:26:12;17.10;;;2.08;;
70838;SDS011;58464;52.298;4.852;2023-01-01T10:28:41;18.98;;;3.17;;
70838;SDS011;58464;52.298;4.852;2023-01-01T10:33:40;15.77;;;2.72;;
70838;SDS011;58464;52.298;4.852;2023-01-01T10:36:06;17.15;;;3.40;;
70838;SDS011;58464;52.298;4.852;2023-01-01T10:38:33;11.68;;;2.55;;
70838;SDS011;58464;52.298;4.852;2023-01-01T10:41:04;12.68;;;3.00;;
70838;SDS011;58464;52.298;4.852;2023-01-01T10:43:30;17.45;;;3.53;;
70838;SDS011;58464;52.298;4.852;2023-01-01T10:45:55;16.63;;;3.35;;
70838;SDS011;58464;52.298;4.852;2023-01-01T10:48:21;11.10;;;2.70;;
70838;SDS011;58464;52.298;4.852;2023-01-01T10:50:54;17.48;;;2.80;;
70838;SDS011;58464;52.298;4.852;2023-01-01T10:58:54;15.48;;;2.63;;
70838;SDS011;58464;52.298;4.852;2023-01-01T11:01:21;20.80;;;4.00;;
70838;SDS011;58464;52.298;4.852;2023-01-01T11:03:57;19.73;;;4.07;;
70838;SDS011;58464;52.298;4.852;2023-01-01T11:06:27;16.13;;;3.15;;
70838;SDS011;58464;52.298;4.852;2023-01-01T11:08:55;16.17;;;3.67;;
70838;SDS011;58464;52.298;4.852;2023-01-01T11:11:42;10.85;;;2.45;;
70838;SDS011;58464;52.298;4.852;2023-01-01T11:14:14;18.15;;;2.92;;
70838;SDS011;58464;52.298;4.852;2023-01-01T11:16:43;19.92;;;3.08;;
70838;SDS011;58464;52.298;4.852;2023-01-01T11:19:23;15.50;;;2.25;;
70838;SDS011;58464;52.298;4.852;2023-01-01T11:21:51;18.42;;;2.70;;
70838;SDS011;58464;52.298;4.852;2023-01-01T11:24:21;12.95;;;2.95;;
70838;SDS011;58464;52.298;4.852;2023-01-01T11:26:46;21.70;;;3.10;;
70838;SDS011;58464;52.298;4.852;2023-01-01T11:31:40;11.10;;;2.28;;
70838;SDS011;58464;52.298;4.852;2023-01-01T11:36:52;15.57;;;3.13;;
70838;SDS011;58464;52.298;4.852;2023-01-01T11:39:25;16.27;;;2.85;;
70838;SDS011;58464;52.298;4.852;2023-01-01T11:41:52;20.42;;;4.60;;
70838;SDS011;58464;52.298;4.852;2023-01-01T11:47:03;16.83;;;2.60;;
70838;SDS011;58464;52.298;4.852;2023-01-01T11:49:29;21.65;;;3.88;;
70838;SDS011;58464;52.298;4.852;2023-01-01T11:51:55;18.38;;;3.30;;
70838;SDS011;58464;52.298;4.852;2023-01-01T11:54:30;19.77;;;3.40;;
70838;SDS011;58464;52.298;4.852;2023-01-01T11:57:03;15.32;;;3.22;;
70838;SDS011;58464;52.298;4.852;2023-01-01T11:59:44;22.15;;;4.68;;
70838;SDS011;58464;52.298;4.852;2023-01-01T12:02:14;16.67;;;2.78;;
70838;SDS011;58464;52.298;4.852;2023-01-01T12:04:47;16.15;;;3.22;;
70838;SDS011;58464;52.298;4.852;2023-01-01T12:07:18;16.52;;;3.10;;
70838;SDS011;58464;52.298;4.852;2023-01-01T12:09:54;15.27;;;3.72;;
70838;SDS011;58464;52.298;4.852;2023-01-01T12:17:44;18.92;;;3.70;;
70838;SDS011;58464;52.298;4.852;2023-01-01T12:22:36;17.30;;;3.50;;
70838;SDS011;58464;52.298;4.852;2023-01-01T12:25:02;11.20;;;2.15;;
70838;SDS011;58464;52.298;4.852;2023-01-01T12:30:09;12.13;;;2.58;;
70838;SDS011;58464;52.298;4.852;2023-01-01T12:35:04;15.63;;;3.67;;
70838;SDS011;58464;52.298;4.852;2023-01-01T12:45:03;13.77;;;2.67;;
70838;SDS011;58464;52.298;4.852;2023-01-01T12:47:48;20.27;;;3.58;;
70838;SDS011;58464;52.298;4.852;2023-01-01T12:53:15;13.70;;;3.17;;
70838;SDS011;58464;52.298;4.852;2023-01-01T12:58:09;19.20;;;2.80;;
70838;SDS011;58464;52.298;4.852;2023-01-01T13:00:39;24.10;;;4.18;;
70838;SDS011;58464;52.298;4.852;2023-01-01T13:03:08;29.35;;;3.42;;
70838;SDS011;58464;52.298;4.852;2023-01-01T13:05:44;15.85;;;2.97;;
70838;SDS011;58464;52.298;4.852;2023-01-01T13:08:10;12.48;;;3.08;;
70838;SDS011;58464;52.298;4.852;2023-01-01T13:10:36;18.73;;;3.73;;
70838;SDS011;58464;52.298;4.852;2023-01-01T13:13:02;12.90;;;2.85;;
70838;SDS011;58464;52.298;4.852;2023-01-01T13:20:28;27.23;;;4.00;;
70838;SDS011;58464;52.298;4.852;2023-01-01T13:22:53;14.55;;;3.17;;
70838;SDS011;58464;52.298;4.852;2023-01-01T13:25:20;21.20;;;3.88;;
70838;SDS011;58464;52.298;4.852;2023-01-01T13:33:23;16.35;;;2.90;;
70838;SDS011;58464;52.298;4.852;2023-01-01T13:38:44;22.30;;;4.32;;
70838;SDS011;58464;52.298;4.852;2023-01-01T13:41:32;25.15;;;4.22;;
70838;SDS011;58464;52.298;4.852;2023-01-01T13:46:26;19.45;;;4.10;;
70838;SDS011;58464;52.298;4.852;2023-01-01T13:51:50;32.77;;;4.40;;
70838;SDS011;58464;52.298;4.852;2023-01-01T13:56:54;19.92;;;4.32;;
70838;SDS011;58464;52.298;4.852;2023-01-01T14:04:29;15.30;;;2.90;;
70838;SDS011;58464;52.298;4.852;2023-01-01T14:06:56;21.92;;;4.43;;
70838;SDS011;58464;52.298;4.852;2023-01-01T14:09:21;23.10;;;4.82;;
70838;SDS011;58464;52.298;4.852;2023-01-01T14:11:47;25.52;;;5.78;;
70838;SDS011;58464;52.298;4.852;2023-01-01T14:16:49;22.45;;;3.97;;
70838;SDS011;58464;52.298;4.852;2023-01-01T14:19:14;18.90;;;4.00;;
70838;SDS011;58464;52.298;4.852;2023-01-01T14:21:40;23.87;;;3.63;;
70838;SDS011;58464;52.298;4.852;2023-01-01T14:24:05;23.13;;;3.80;;
70838;SDS011;58464;52.298;4.852;2023-01-01T14:26:31;19.90;;;3.22;;
70838;SDS011;58464;52.298;4.852;2023-01-01T14:28:58;23.50;;;3.58;;
70838;SDS011;58464;52.298;4.852;2023-01-01T14:31:29;23.20;;;3.83;;
70838;SDS011;58464;52.298;4.852;2023-01-01T14:33:54;13.88;;;2.95;;
70838;SDS011;58464;52.298;4.852;2023-01-01T14:38:49;12.82;;;3.35;;
70838;SDS011;58464;52.298;4.852;2023-01-01T14:41:27;12.70;;;3.20;;
70838;SDS011;58464;52.298;4.852;2023-01-01T14:43:57;18.27;;;3.10;;
70838;SDS011;58464;52.298;4.852;2023-01-01T14:46:26;19.45;;;2.80;;
70838;SDS011;58464;52.298;4.852;2023-01-01T14:48:53;13.98;;;2.72;;
70838;SDS011;58464;52.298;4.852;2023-01-01T14:51:20;17.15;;;3.70;;
70838;SDS011;58464;52.298;4.852;2023-01-01T14:53:46;21.98;;;3.30;;
70838;SDS011;58464;52.298;4.852;2023-01-01T15:01:21;21.60;;;3.23;;
70838;SDS011;58464;52.298;4.852;2023-01-01T15:04:12;17.52;;;3.70;;
70838;SDS011;58464;52.298;4.852;2023-01-01T15:06:38;17.08;;;2.85;;
70838;SDS011;58464;52.298;4.852;2023-01-01T15:09:04;16.25;;;2.85;;
70838;SDS011;58464;52.298;4.852;2023-01-01T15:11:30;17.80;;;3.58;;
70838;SDS011;58464;52.298;4.852;2023-01-01T15:13:57;20.27;;;3.57;;
70838;SDS011;58464;52.298;4.852;2023-01-01T15:16:23;18.80;;;3.42;;
70838;SDS011;58464;52.298;4.852;2023-01-01T15:18:49;12.77;;;3.20;;
70838;SDS011;58464;52.298;4.852;2023-01-01T15:24:13;16.45;;;3.03;;
70838;SDS011;58464;52.298;4.852;2023-01-01T15:29:08;17.97;;;3.07;;
70838;SDS011;58464;52.298;4.852;2023-01-01T15:31:35;23.70;;;3.90;;
70838;SDS011;58464;52.298;4.852;2023-01-01T15:34:02;25.60;;;2.95;;
70838;SDS011;58464;52.298;4.852;2023-01-01T15:36:27;19.83;;;3.30;;
70838;SDS011;58464;52.298;4.852;2023-01-01T15:38:53;17.52;;;3.38;;
70838;SDS011;58464;52.298;4.852;2023-01-01T15:41:22;12.60;;;2.75;;
70838;SDS011;58464;52.298;4.852;2023-01-01T15:43:47;11.45;;;3.30;;
70838;SDS011;58464;52.298;4.852;2023-01-01T15:46:18;14.47;;;3.10;;
70838;SDS011;58464;52.298;4.852;2023-01-01T15:48:50;21.98;;;3.75;;
70838;SDS011;58464;52.298;4.852;2023-01-01T15:51:19;17.90;;;3.03;;
70838;SDS011;58464;52.298;4.852;2023-01-01T15:56:18;20.00;;;3.38;;
70838;SDS011;58464;52.298;4.852;2023-01-01T15:58:47;19.20;;;5.35;;
70838;SDS011;58464;52.298;4.852;2023-01-01T16:01:17;29.88;;;4.35;;
70838;SDS011;58464;52.298;4.852;2023-01-01T16:03:43;17.08;;;3.72;;
70838;SDS011;58464;52.298;4.852;2023-01-01T16:06:13;17.98;;;3.22;;
70838;SDS011;58464;52.298;4.852;2023-01-01T16:08:39;17.25;;;3.55;;
70838;SDS011;58464;52.298;4.852;2023-01-01T16:11:04;23.40;;;4.03;;
70838;SDS011;58464;52.298;4.852;2023-01-01T16:13:30;20.97;;;3.70;;
70838;SDS011;58464;52.298;4.852;2023-01-01T16:15:57;17.48;;;3.40;;
70838;SDS011;58464;52.298;4.852;2023-01-01T16:18:25;14.07;;;2.60;;
70838;SDS011;58464;52.298;4.852;2023-01-01T16:20:52;19.23;;;3.50;;
70838;SDS011;58464;52.298;4.852;2023-01-01T16:23:17;18.60;;;3.53;;
70838;SDS011;58464;52.298;4.852;2023-01-01T16:25:42;13.93;;;3.15;;
70838;SDS011;58464;52.298;4.852;2023-01-01T16:28:08;17.70;;;3.30;;
70838;SDS011;58464;52.298;4.852;2023-01-01T16:30:34;19.50;;;3.53;;
70838;SDS011;58464;52.298;4.852;2023-01-01T16:32:59;21.77;;;3.47;;
70838;SDS011;58464;52.298;4.852;2023-01-01T16:35:24;17.20;;;3.53;;